sensor_id;sensor_type;location;lat;lon;timestamp;temperature;humidity
13458;DHT22;6801;53.018;11.560;2023-08-17T00:00:18;22.70;62.70
13458;DHT22;6801;53.018;11.560;2023-08-17T00:02:45;22.60;62.90
13458;DHT22;6801;53.018;11.560;2023-08-17T00:05:12;22.60;63.00
13458;DHT22;6801;53.018;11.560;2023-08-17T00:07:39;22.60;63.20
13458;DHT22;6801;53.018;11.560;2023-08-17T00:10:06;22.60;63.30
13458;DHT22;6801;53.018;11.560;2023-08-17T00:12:33;22.60;63.40
13458;DHT22;6801;53.018;11.560;2023-08-17T00:15:02;22.60;63.50
13458;DHT22;6801;53.018;11.560;2023-08-17T00:17:29;22.60;63.60
13458;DHT22;6801;53.018;11.560;2023-08-17T00:19:56;22.50;63.60
13458;DHT22;6801;53.018;11.560;2023-08-17T00:22:23;22.60;63.80
13458;DHT22;6801;53.018;11.560;2023-08-17T00:24:50;22.50;63.90
13458;DHT22;6801;53.018;11.560;2023-08-17T00:27:17;22.50;63.90
13458;DHT22;6801;53.018;11.560;2023-08-17T00:29:44;22.50;64.00
13458;DHT22;6801;53.018;11.560;2023-08-17T00:32:13;22.50;64.10
13458;DHT22;6801;53.018;11.560;2023-08-17T00:34:41;22.50;64.10
13458;DHT22;6801;53.018;11.560;2023-08-17T00:37:07;22.50;64.20
13458;DHT22;6801;53.018;11.560;2023-08-17T00:39:34;22.50;64.30
13458;DHT22;6801;53.018;11.560;2023-08-17T00:42:02;22.40;64.30
13458;DHT22;6801;53.018;11.560;2023-08-17T00:44:29;22.40;64.50
13458;DHT22;6801;53.018;11.560;2023-08-17T00:46:56;22.40;64.40
13458;DHT22;6801;53.018;11.560;2023-08-17T00:49:25;22.30;64.40
13458;DHT22;6801;53.018;11.560;2023-08-17T00:51:52;22.30;64.50
13458;DHT22;6801;53.018;11.560;2023-08-17T00:54:24;22.30;64.40
13458;DHT22;6801;53.018;11.560;2023-08-17T00:56:53;22.30;64.50
13458;DHT22;6801;53.018;11.560;2023-08-17T00:59:20;22.30;64.50
13458;DHT22;6801;53.018;11.560;2023-08-17T01:01:49;22.30;64.60
13458;DHT22;6801;53.018;11.560;2023-08-17T01:04:16;22.20;64.60
13458;DHT22;6801;53.018;11.560;2023-08-17T01:06:45;22.20;64.60
13458;DHT22;6801;53.018;11.560;2023-08-17T01:09:12;22.20;64.70
13458;DHT22;6801;53.018;11.560;2023-08-17T01:11:45;22.10;64.70
13458;DHT22;6801;53.018;11.560;2023-08-17T01:14:22;22.10;64.80
13458;DHT22;6801;53.018;11.560;2023-08-17T01:16:59;22.10;64.90
13458;DHT22;6801;53.018;11.560;2023-08-17T01:19:28;22.10;65.10
13458;DHT22;6801;53.018;11.560;2023-08-17T01:22:00;22.10;65.20
13458;DHT22;6801;53.018;11.560;2023-08-17T01:24:31;22.00;65.40
13458;DHT22;6801;53.018;11.560;2023-08-17T01:26:58;22.00;65.70
13458;DHT22;6801;53.018;11.560;2023-08-17T01:29:25;22.00;65.90
13458;DHT22;6801;53.018;11.560;2023-08-17T01:31:56;22.00;66.00
13458;DHT22;6801;53.018;11.560;2023-08-17T01:34:27;22.00;66.00
13458;DHT22;6801;53.018;11.560;2023-08-17T01:37:00;22.00;66.00
13458;DHT22;6801;53.018;11.560;2023-08-17T01:39:32;22.00;66.00
13458;DHT22;6801;53.018;11.560;2023-08-17T01:42:02;22.00;66.00
13458;DHT22;6801;53.018;11.560;2023-08-17T01:44:29;22.00;66.20
13458;DHT22;6801;53.018;11.560;2023-08-17T01:46:56;22.00;66.20
13458;DHT22;6801;53.018;11.560;2023-08-17T01:49:23;21.90;66.30
13458;DHT22;6801;53.018;11.560;2023-08-17T01:51:52;21.90;66.40
13458;DHT22;6801;53.018;11.560;2023-08-17T01:54:19;21.90;66.60
13458;DHT22;6801;53.018;11.560;2023-08-17T01:56:47;21.90;66.60
13458;DHT22;6801;53.018;11.560;2023-08-17T01:59:14;21.80;66.80
13458;DHT22;6801;53.018;11.560;2023-08-17T02:01:41;21.80;66.90
13458;DHT22;6801;53.018;11.560;2023-08-17T02:04:08;21.80;66.90
13458;DHT22;6801;53.018;11.560;2023-08-17T02:06:37;21.80;67.00
13458;DHT22;6801;53.018;11.560;2023-08-17T02:09:05;21.70;66.90
13458;DHT22;6801;53.018;11.560;2023-08-17T02:11:32;21.70;67.00
13458;DHT22;6801;53.018;11.560;2023-08-17T02:14:00;21.70;67.10
13458;DHT22;6801;53.018;11.560;2023-08-17T02:16:27;21.70;67.20
13458;DHT22;6801;53.018;11.560;2023-08-17T02:18:54;21.70;67.20
13458;DHT22;6801;53.018;11.560;2023-08-17T02:21:24;21.70;67.30
13458;DHT22;6801;53.018;11.560;2023-08-17T02:23:51;21.70;67.30
13458;DHT22;6801;53.018;11.560;2023-08-17T02:26:18;21.60;67.40
13458;DHT22;6801;53.018;11.560;2023-08-17T02:28:45;21.60;67.60
13458;DHT22;6801;53.018;11.560;2023-08-17T02:31:13;21.60;67.50
13458;DHT22;6801;53.018;11.560;2023-08-17T02:33:40;21.60;67.60
13458;DHT22;6801;53.018;11.560;2023-08-17T02:36:07;21.60;67.60
13458;DHT22;6801;53.018;11.560;2023-08-17T02:38:34;21.60;67.60
13458;DHT22;6801;53.018;11.560;2023-08-17T02:41:01;21.50;67.60
13458;DHT22;6801;53.018;11.560;2023-08-17T02:43:28;21.50;67.60
13458;DHT22;6801;53.018;11.560;2023-08-17T02:45:55;21.50;67.60
13458;DHT22;6801;53.018;11.560;2023-08-17T02:48:23;21.50;67.60
13458;DHT22;6801;53.018;11.560;2023-08-17T02:50:50;21.50;67.70
13458;DHT22;6801;53.018;11.560;2023-08-17T02:53:17;21.50;67.70
13458;DHT22;6801;53.018;11.560;2023-08-17T02:55:44;21.50;67.70
13458;DHT22;6801;53.018;11.560;2023-08-17T02:58:11;21.50;67.80
13458;DHT22;6801;53.018;11.560;2023-08-17T03:00:39;21.40;67.90
13458;DHT22;6801;53.018;11.560;2023-08-17T03:03:06;21.40;67.90
13458;DHT22;6801;53.018;11.560;2023-08-17T03:05:34;21.40;67.90
13458;DHT22;6801;53.018;11.560;2023-08-17T03:08:02;21.40;67.90
13458;DHT22;6801;53.018;11.560;2023-08-17T03:10:29;21.40;67.90
13458;DHT22;6801;53.018;11.560;2023-08-17T03:12:56;21.40;68.00
13458;DHT22;6801;53.018;11.560;2023-08-17T03:15:24;21.40;67.80
13458;DHT22;6801;53.018;11.560;2023-08-17T03:17:51;21.40;67.90
13458;DHT22;6801;53.018;11.560;2023-08-17T03:20:18;21.30;67.80
13458;DHT22;6801;53.018;11.560;2023-08-17T03:22:47;21.30;67.80
13458;DHT22;6801;53.018;11.560;2023-08-17T03:25:14;21.30;67.80
13458;DHT22;6801;53.018;11.560;2023-08-17T03:27:42;21.30;67.70
13458;DHT22;6801;53.018;11.560;2023-08-17T03:30:09;21.30;67.70
13458;DHT22;6801;53.018;11.560;2023-08-17T03:32:37;21.30;67.80
13458;DHT22;6801;53.018;11.560;2023-08-17T03:35:05;21.30;67.70
13458;DHT22;6801;53.018;11.560;2023-08-17T03:37:32;21.30;67.70
13458;DHT22;6801;53.018;11.560;2023-08-17T03:40:01;21.20;67.80
13458;DHT22;6801;53.018;11.560;2023-08-17T03:42:30;21.20;67.60
13458;DHT22;6801;53.018;11.560;2023-08-17T03:44:57;21.20;67.50
13458;DHT22;6801;53.018;11.560;2023-08-17T03:47:24;21.20;67.40
13458;DHT22;6801;53.018;11.560;2023-08-17T03:49:52;21.20;67.40
13458;DHT22;6801;53.018;11.560;2023-08-17T03:52:19;21.20;67.50
13458;DHT22;6801;53.018;11.560;2023-08-17T03:54:47;21.10;67.40
13458;DHT22;6801;53.018;11.560;2023-08-17T03:57:17;21.10;67.40
13458;DHT22;6801;53.018;11.560;2023-08-17T03:59:44;21.10;67.30
13458;DHT22;6801;53.018;11.560;2023-08-17T04:02:12;21.10;67.30
13458;DHT22;6801;53.018;11.560;2023-08-17T04:04:39;21.10;67.40
13458;DHT22;6801;53.018;11.560;2023-08-17T04:07:06;21.10;67.20
13458;DHT22;6801;53.018;11.560;2023-08-17T04:09:33;21.00;67.20
13458;DHT22;6801;53.018;11.560;2023-08-17T04:12:00;21.00;67.20
13458;DHT22;6801;53.018;11.560;2023-08-17T04:14:34;21.00;67.00
13458;DHT22;6801;53.018;11.560;2023-08-17T04:17:01;21.00;67.20
13458;DHT22;6801;53.018;11.560;2023-08-17T04:19:28;21.00;67.30
13458;DHT22;6801;53.018;11.560;2023-08-17T04:21:55;21.00;67.40
13458;DHT22;6801;53.018;11.560;2023-08-17T04:24:22;21.00;67.30
13458;DHT22;6801;53.018;11.560;2023-08-17T04:26:50;21.00;67.20
13458;DHT22;6801;53.018;11.560;2023-08-17T04:29:17;21.00;67.30
13458;DHT22;6801;53.018;11.560;2023-08-17T04:31:45;21.00;67.30
13458;DHT22;6801;53.018;11.560;2023-08-17T04:34:12;21.00;67.40
13458;DHT22;6801;53.018;11.560;2023-08-17T04:36:39;21.00;67.40
13458;DHT22;6801;53.018;11.560;2023-08-17T04:39:06;21.00;67.50
13458;DHT22;6801;53.018;11.560;2023-08-17T04:41:34;21.00;67.50
13458;DHT22;6801;53.018;11.560;2023-08-17T04:44:05;21.00;67.60
13458;DHT22;6801;53.018;11.560;2023-08-17T04:46:32;21.00;67.60
13458;DHT22;6801;53.018;11.560;2023-08-17T04:49:00;21.00;67.40
13458;DHT22;6801;53.018;11.560;2023-08-17T04:51:27;21.00;67.40
13458;DHT22;6801;53.018;11.560;2023-08-17T04:53:55;21.00;67.50
13458;DHT22;6801;53.018;11.560;2023-08-17T04:56:22;21.00;67.70
13458;DHT22;6801;53.018;11.560;2023-08-17T04:58:49;20.90;67.60
13458;DHT22;6801;53.018;11.560;2023-08-17T05:01:17;20.90;67.60
13458;DHT22;6801;53.018;11.560;2023-08-17T05:03:45;20.90;67.70
13458;DHT22;6801;53.018;11.560;2023-08-17T05:06:14;20.90;67.70
13458;DHT22;6801;53.018;11.560;2023-08-17T05:08:42;20.90;67.80
13458;DHT22;6801;53.018;11.560;2023-08-17T05:11:09;20.80;67.70
13458;DHT22;6801;53.018;11.560;2023-08-17T05:13:36;20.80;67.70
13458;DHT22;6801;53.018;11.560;2023-08-17T05:16:04;20.80;67.80
13458;DHT22;6801;53.018;11.560;2023-08-17T05:18:32;20.80;67.90
13458;DHT22;6801;53.018;11.560;2023-08-17T05:20:59;20.80;68.00
13458;DHT22;6801;53.018;11.560;2023-08-17T05:23:28;20.70;68.10
13458;DHT22;6801;53.018;11.560;2023-08-17T05:25:56;20.70;68.00
13458;DHT22;6801;53.018;11.560;2023-08-17T05:28:23;20.70;67.90
13458;DHT22;6801;53.018;11.560;2023-08-17T05:30:50;20.60;68.00
13458;DHT22;6801;53.018;11.560;2023-08-17T05:33:17;20.60;68.10
13458;DHT22;6801;53.018;11.560;2023-08-17T05:35:45;20.60;68.30
13458;DHT22;6801;53.018;11.560;2023-08-17T05:38:12;20.60;68.20
13458;DHT22;6801;53.018;11.560;2023-08-17T05:40:41;20.50;68.30
13458;DHT22;6801;53.018;11.560;2023-08-17T05:43:10;20.50;68.40
13458;DHT22;6801;53.018;11.560;2023-08-17T05:45:37;20.50;68.60
13458;DHT22;6801;53.018;11.560;2023-08-17T05:48:05;20.50;68.80
13458;DHT22;6801;53.018;11.560;2023-08-17T05:50:32;20.40;68.70
13458;DHT22;6801;53.018;11.560;2023-08-17T05:53:00;20.40;68.80
13458;DHT22;6801;53.018;11.560;2023-08-17T05:55:27;20.40;69.10
13458;DHT22;6801;53.018;11.560;2023-08-17T05:57:55;20.30;69.10
13458;DHT22;6801;53.018;11.560;2023-08-17T06:00:23;20.30;69.20
13458;DHT22;6801;53.018;11.560;2023-08-17T06:02:50;20.30;68.60
13458;DHT22;6801;53.018;11.560;2023-08-17T06:05:17;20.30;68.40
13458;DHT22;6801;53.018;11.560;2023-08-17T06:07:44;20.30;68.10
13458;DHT22;6801;53.018;11.560;2023-08-17T06:10:12;20.30;68.30
13458;DHT22;6801;53.018;11.560;2023-08-17T06:12:39;20.20;68.60
13458;DHT22;6801;53.018;11.560;2023-08-17T06:15:08;20.20;68.90
13458;DHT22;6801;53.018;11.560;2023-08-17T06:17:35;20.10;69.10
13458;DHT22;6801;53.018;11.560;2023-08-17T06:20:02;20.10;68.90
13458;DHT22;6801;53.018;11.560;2023-08-17T06:22:29;20.00;68.90
13458;DHT22;6801;53.018;11.560;2023-08-17T06:24:56;20.00;68.80
13458;DHT22;6801;53.018;11.560;2023-08-17T06:27:24;20.00;68.80
13458;DHT22;6801;53.018;11.560;2023-08-17T06:29:51;19.90;69.00
13458;DHT22;6801;53.018;11.560;2023-08-17T06:32:19;19.90;69.40
13458;DHT22;6801;53.018;11.560;2023-08-17T06:34:46;19.80;69.60
13458;DHT22;6801;53.018;11.560;2023-08-17T06:37:13;19.80;69.80
13458;DHT22;6801;53.018;11.560;2023-08-17T06:39:40;19.80;70.00
13458;DHT22;6801;53.018;11.560;2023-08-17T06:42:07;19.80;70.10
13458;DHT22;6801;53.018;11.560;2023-08-17T06:44:34;19.70;70.30
13458;DHT22;6801;53.018;11.560;2023-08-17T06:47:01;19.70;70.50
13458;DHT22;6801;53.018;11.560;2023-08-17T06:49:30;19.80;70.90
13458;DHT22;6801;53.018;11.560;2023-08-17T06:51:57;19.70;71.00
13458;DHT22;6801;53.018;11.560;2023-08-17T06:54:24;19.70;71.10
13458;DHT22;6801;53.018;11.560;2023-08-17T06:56:51;19.70;71.30
13458;DHT22;6801;53.018;11.560;2023-08-17T06:59:18;19.70;71.30
13458;DHT22;6801;53.018;11.560;2023-08-17T07:01:46;19.60;71.50
13458;DHT22;6801;53.018;11.560;2023-08-17T07:04:12;19.60;71.60
13458;DHT22;6801;53.018;11.560;2023-08-17T07:06:41;19.60;71.70
13458;DHT22;6801;53.018;11.560;2023-08-17T07:09:09;19.60;71.60
13458;DHT22;6801;53.018;11.560;2023-08-17T07:11:38;19.60;71.80
13458;DHT22;6801;53.018;11.560;2023-08-17T07:14:05;19.50;71.60
13458;DHT22;6801;53.018;11.560;2023-08-17T07:16:33;19.50;71.90
13458;DHT22;6801;53.018;11.560;2023-08-17T07:19:00;19.50;72.00
13458;DHT22;6801;53.018;11.560;2023-08-17T07:21:27;19.50;72.10
13458;DHT22;6801;53.018;11.560;2023-08-17T07:23:55;19.50;72.20
13458;DHT22;6801;53.018;11.560;2023-08-17T07:26:22;19.50;72.40
13458;DHT22;6801;53.018;11.560;2023-08-17T07:28:49;19.60;72.20
13458;DHT22;6801;53.018;11.560;2023-08-17T07:31:16;19.60;72.50
13458;DHT22;6801;53.018;11.560;2023-08-17T07:33:43;19.60;72.50
13458;DHT22;6801;53.018;11.560;2023-08-17T07:36:11;19.50;72.60
13458;DHT22;6801;53.018;11.560;2023-08-17T07:38:38;19.60;72.60
13458;DHT22;6801;53.018;11.560;2023-08-17T07:41:06;19.60;72.50
13458;DHT22;6801;53.018;11.560;2023-08-17T07:43:34;19.60;72.60
13458;DHT22;6801;53.018;11.560;2023-08-17T07:46:01;19.70;72.30
13458;DHT22;6801;53.018;11.560;2023-08-17T07:48:28;19.60;72.40
13458;DHT22;6801;53.018;11.560;2023-08-17T07:50:59;19.60;72.40
13458;DHT22;6801;53.018;11.560;2023-08-17T07:53:26;19.60;72.30
13458;DHT22;6801;53.018;11.560;2023-08-17T07:55:53;19.70;72.50
13458;DHT22;6801;53.018;11.560;2023-08-17T07:58:21;19.70;72.50
13458;DHT22;6801;53.018;11.560;2023-08-17T08:00:48;19.70;72.40
13458;DHT22;6801;53.018;11.560;2023-08-17T08:03:15;19.70;72.40
13458;DHT22;6801;53.018;11.560;2023-08-17T08:05:42;19.70;72.60
13458;DHT22;6801;53.018;11.560;2023-08-17T08:08:09;19.70;72.40
13458;DHT22;6801;53.018;11.560;2023-08-17T08:10:36;19.70;72.60
13458;DHT22;6801;53.018;11.560;2023-08-17T08:13:04;19.70;72.80
13458;DHT22;6801;53.018;11.560;2023-08-17T08:15:33;19.70;72.70
13458;DHT22;6801;53.018;11.560;2023-08-17T08:18:00;19.70;73.00
13458;DHT22;6801;53.018;11.560;2023-08-17T08:20:27;19.70;72.70
13458;DHT22;6801;53.018;11.560;2023-08-17T08:22:54;19.80;73.00
13458;DHT22;6801;53.018;11.560;2023-08-17T08:25:21;19.80;72.70
13458;DHT22;6801;53.018;11.560;2023-08-17T08:27:48;19.80;72.70
13458;DHT22;6801;53.018;11.560;2023-08-17T08:30:15;19.80;72.70
13458;DHT22;6801;53.018;11.560;2023-08-17T08:32:45;19.80;72.80
13458;DHT22;6801;53.018;11.560;2023-08-17T08:35:12;19.90;72.90
13458;DHT22;6801;53.018;11.560;2023-08-17T08:37:39;19.90;72.90
13458;DHT22;6801;53.018;11.560;2023-08-17T08:40:10;20.00;72.90
13458;DHT22;6801;53.018;11.560;2023-08-17T08:42:38;20.00;73.10
13458;DHT22;6801;53.018;11.560;2023-08-17T08:45:06;20.00;73.00
13458;DHT22;6801;53.018;11.560;2023-08-17T08:47:34;20.10;72.80
13458;DHT22;6801;53.018;11.560;2023-08-17T08:50:05;20.10;72.70
13458;DHT22;6801;53.018;11.560;2023-08-17T08:52:34;20.10;72.70
13458;DHT22;6801;53.018;11.560;2023-08-17T08:55:15;20.10;72.70
13458;DHT22;6801;53.018;11.560;2023-08-17T08:57:44;20.20;72.80
13458;DHT22;6801;53.018;11.560;2023-08-17T09:00:13;20.20;72.60
13458;DHT22;6801;53.018;11.560;2023-08-17T09:02:42;20.20;72.50
13458;DHT22;6801;53.018;11.560;2023-08-17T09:05:11;20.20;72.40
13458;DHT22;6801;53.018;11.560;2023-08-17T09:07:38;20.30;72.40
13458;DHT22;6801;53.018;11.560;2023-08-17T09:10:06;20.30;72.40
13458;DHT22;6801;53.018;11.560;2023-08-17T09:12:33;20.40;72.20
13458;DHT22;6801;53.018;11.560;2023-08-17T09:15:00;20.40;72.00
13458;DHT22;6801;53.018;11.560;2023-08-17T09:17:28;20.40;72.00
13458;DHT22;6801;53.018;11.560;2023-08-17T09:20:00;20.50;71.90
13458;DHT22;6801;53.018;11.560;2023-08-17T09:22:37;20.50;71.90
13458;DHT22;6801;53.018;11.560;2023-08-17T09:25:05;20.50;71.80
13458;DHT22;6801;53.018;11.560;2023-08-17T09:27:33;20.50;71.60
13458;DHT22;6801;53.018;11.560;2023-08-17T09:30:04;20.50;71.30
13458;DHT22;6801;53.018;11.560;2023-08-17T09:32:32;20.50;71.20
13458;DHT22;6801;53.018;11.560;2023-08-17T09:35:01;20.50;71.00
13458;DHT22;6801;53.018;11.560;2023-08-17T09:37:31;20.50;71.00
13458;DHT22;6801;53.018;11.560;2023-08-17T09:39:58;20.50;71.00
13458;DHT22;6801;53.018;11.560;2023-08-17T09:42:26;20.50;71.00
13458;DHT22;6801;53.018;11.560;2023-08-17T09:44:53;20.50;71.10
13458;DHT22;6801;53.018;11.560;2023-08-17T09:47:22;20.50;71.20
13458;DHT22;6801;53.018;11.560;2023-08-17T09:49:49;20.50;71.30
13458;DHT22;6801;53.018;11.560;2023-08-17T09:52:17;20.50;71.40
13458;DHT22;6801;53.018;11.560;2023-08-17T09:54:47;20.50;71.50
13458;DHT22;6801;53.018;11.560;2023-08-17T09:57:14;20.50;71.50
13458;DHT22;6801;53.018;11.560;2023-08-17T09:59:41;20.50;71.40
13458;DHT22;6801;53.018;11.560;2023-08-17T10:02:17;20.60;71.60
13458;DHT22;6801;53.018;11.560;2023-08-17T10:04:49;20.50;71.50
13458;DHT22;6801;53.018;11.560;2023-08-17T10:07:19;20.60;71.50
13458;DHT22;6801;53.018;11.560;2023-08-17T10:09:54;20.60;71.50
13458;DHT22;6801;53.018;11.560;2023-08-17T10:12:26;20.60;71.50
13458;DHT22;6801;53.018;11.560;2023-08-17T10:14:59;20.70;71.50
13458;DHT22;6801;53.018;11.560;2023-08-17T10:17:37;20.70;71.40
13458;DHT22;6801;53.018;11.560;2023-08-17T10:20:07;20.70;71.30
13458;DHT22;6801;53.018;11.560;2023-08-17T10:22:40;20.70;71.10
13458;DHT22;6801;53.018;11.560;2023-08-17T10:25:12;20.70;71.20
13458;DHT22;6801;53.018;11.560;2023-08-17T10:27:40;20.80;71.20
13458;DHT22;6801;53.018;11.560;2023-08-17T10:30:08;20.80;71.20
13458;DHT22;6801;53.018;11.560;2023-08-17T10:32:37;20.80;71.10
13458;DHT22;6801;53.018;11.560;2023-08-17T10:35:05;20.80;70.90
13458;DHT22;6801;53.018;11.560;2023-08-17T10:37:33;20.80;70.90
13458;DHT22;6801;53.018;11.560;2023-08-17T10:40:00;20.80;70.90
13458;DHT22;6801;53.018;11.560;2023-08-17T10:42:32;20.80;70.80
13458;DHT22;6801;53.018;11.560;2023-08-17T10:45:00;20.90;70.80
13458;DHT22;6801;53.018;11.560;2023-08-17T10:47:31;20.90;70.80
13458;DHT22;6801;53.018;11.560;2023-08-17T10:50:00;20.90;70.80
13458;DHT22;6801;53.018;11.560;2023-08-17T10:52:30;20.90;70.80
13458;DHT22;6801;53.018;11.560;2023-08-17T10:55:00;20.90;70.80
13458;DHT22;6801;53.018;11.560;2023-08-17T10:57:28;20.90;70.80
13458;DHT22;6801;53.018;11.560;2023-08-17T11:00:17;20.90;70.80
13458;DHT22;6801;53.018;11.560;2023-08-17T11:02:52;20.90;70.90
13458;DHT22;6801;53.018;11.560;2023-08-17T11:05:40;20.90;70.90
13458;DHT22;6801;53.018;11.560;2023-08-17T11:08:09;20.90;70.90
13458;DHT22;6801;53.018;11.560;2023-08-17T11:10:38;20.90;70.80
13458;DHT22;6801;53.018;11.560;2023-08-17T11:13:05;21.00;71.00
13458;DHT22;6801;53.018;11.560;2023-08-17T11:15:38;21.00;70.90
13458;DHT22;6801;53.018;11.560;2023-08-17T11:18:08;21.00;71.10
13458;DHT22;6801;53.018;11.560;2023-08-17T11:20:37;21.00;71.00
13458;DHT22;6801;53.018;11.560;2023-08-17T11:23:05;21.00;71.10
13458;DHT22;6801;53.018;11.560;2023-08-17T11:25:32;21.00;71.30
13458;DHT22;6801;53.018;11.560;2023-08-17T11:28:00;21.00;71.30
13458;DHT22;6801;53.018;11.560;2023-08-17T11:30:29;21.00;71.10
13458;DHT22;6801;53.018;11.560;2023-08-17T11:32:57;21.00;71.00
13458;DHT22;6801;53.018;11.560;2023-08-17T11:35:24;21.10;71.10
13458;DHT22;6801;53.018;11.560;2023-08-17T11:37:51;21.10;71.00
13458;DHT22;6801;53.018;11.560;2023-08-17T11:40:19;21.20;71.20
13458;DHT22;6801;53.018;11.560;2023-08-17T11:42:46;21.20;71.10
13458;DHT22;6801;53.018;11.560;2023-08-17T11:45:13;21.20;70.90
13458;DHT22;6801;53.018;11.560;2023-08-17T11:47:41;21.30;70.90
13458;DHT22;6801;53.018;11.560;2023-08-17T11:50:11;21.30;70.80
13458;DHT22;6801;53.018;11.560;2023-08-17T11:52:39;21.40;70.80
13458;DHT22;6801;53.018;11.560;2023-08-17T11:55:08;21.50;70.70
13458;DHT22;6801;53.018;11.560;2023-08-17T11:57:35;21.50;70.90
13458;DHT22;6801;53.018;11.560;2023-08-17T12:00:04;21.50;70.90
13458;DHT22;6801;53.018;11.560;2023-08-17T12:02:32;21.60;70.90
13458;DHT22;6801;53.018;11.560;2023-08-17T12:05:04;21.60;70.90
13458;DHT22;6801;53.018;11.560;2023-08-17T12:07:33;21.60;70.90
13458;DHT22;6801;53.018;11.560;2023-08-17T12:10:02;21.70;70.80
13458;DHT22;6801;53.018;11.560;2023-08-17T12:12:30;21.80;70.80
13458;DHT22;6801;53.018;11.560;2023-08-17T12:14:57;21.90;70.70
13458;DHT22;6801;53.018;11.560;2023-08-17T12:17:25;22.00;70.30
13458;DHT22;6801;53.018;11.560;2023-08-17T12:19:55;22.00;70.10
13458;DHT22;6801;53.018;11.560;2023-08-17T12:22:24;22.00;70.00
13458;DHT22;6801;53.018;11.560;2023-08-17T12:24:53;22.10;70.00
13458;DHT22;6801;53.018;11.560;2023-08-17T12:27:22;22.10;69.80
13458;DHT22;6801;53.018;11.560;2023-08-17T12:29:50;22.10;69.90
13458;DHT22;6801;53.018;11.560;2023-08-17T12:32:19;22.20;70.00
13458;DHT22;6801;53.018;11.560;2023-08-17T12:34:46;22.20;69.80
13458;DHT22;6801;53.018;11.560;2023-08-17T12:37:19;22.30;69.90
13458;DHT22;6801;53.018;11.560;2023-08-17T12:39:47;22.30;70.00
13458;DHT22;6801;53.018;11.560;2023-08-17T12:42:15;22.40;69.90
13458;DHT22;6801;53.018;11.560;2023-08-17T12:44:44;22.40;70.00
13458;DHT22;6801;53.018;11.560;2023-08-17T12:47:11;22.50;70.00
13458;DHT22;6801;53.018;11.560;2023-08-17T12:49:38;22.50;69.90
13458;DHT22;6801;53.018;11.560;2023-08-17T12:52:05;22.50;69.80
13458;DHT22;6801;53.018;11.560;2023-08-17T12:54:32;22.50;69.80
13458;DHT22;6801;53.018;11.560;2023-08-17T12:56:59;22.60;69.90
13458;DHT22;6801;53.018;11.560;2023-08-17T12:59:30;22.70;69.90
13458;DHT22;6801;53.018;11.560;2023-08-17T13:01:57;22.80;69.50
13458;DHT22;6801;53.018;11.560;2023-08-17T13:04:24;22.80;69.40
13458;DHT22;6801;53.018;11.560;2023-08-17T13:06:51;22.90;69.30
13458;DHT22;6801;53.018;11.560;2023-08-17T13:09:19;22.90;69.30
13458;DHT22;6801;53.018;11.560;2023-08-17T13:11:46;23.00;69.40
13458;DHT22;6801;53.018;11.560;2023-08-17T13:14:14;23.00;69.40
13458;DHT22;6801;53.018;11.560;2023-08-17T13:16:42;23.00;69.40
13458;DHT22;6801;53.018;11.560;2023-08-17T13:19:10;23.10;69.30
13458;DHT22;6801;53.018;11.560;2023-08-17T13:21:37;23.20;69.20
13458;DHT22;6801;53.018;11.560;2023-08-17T13:24:04;23.20;69.10
13458;DHT22;6801;53.018;11.560;2023-08-17T13:26:32;23.20;69.20
13458;DHT22;6801;53.018;11.560;2023-08-17T13:28:59;23.30;69.10
13458;DHT22;6801;53.018;11.560;2023-08-17T13:31:26;23.30;68.60
13458;DHT22;6801;53.018;11.560;2023-08-17T13:33:55;23.30;68.50
13458;DHT22;6801;53.018;11.560;2023-08-17T13:36:22;23.30;68.30
13458;DHT22;6801;53.018;11.560;2023-08-17T13:38:49;23.30;67.40
13458;DHT22;6801;53.018;11.560;2023-08-17T13:41:16;23.30;67.30
13458;DHT22;6801;53.018;11.560;2023-08-17T13:43:43;23.30;67.80
13458;DHT22;6801;53.018;11.560;2023-08-17T13:46:12;23.40;68.10
13458;DHT22;6801;53.018;11.560;2023-08-17T13:48:39;23.30;68.00
13458;DHT22;6801;53.018;11.560;2023-08-17T13:51:08;23.40;68.00
13458;DHT22;6801;53.018;11.560;2023-08-17T13:53:36;23.40;67.70
13458;DHT22;6801;53.018;11.560;2023-08-17T13:56:04;23.40;67.80
13458;DHT22;6801;53.018;11.560;2023-08-17T13:58:31;23.40;67.40
13458;DHT22;6801;53.018;11.560;2023-08-17T14:00:58;23.40;67.50
13458;DHT22;6801;53.018;11.560;2023-08-17T14:03:25;23.40;67.60
13458;DHT22;6801;53.018;11.560;2023-08-17T14:05:53;23.40;67.40
13458;DHT22;6801;53.018;11.560;2023-08-17T14:08:21;23.50;67.30
13458;DHT22;6801;53.018;11.560;2023-08-17T14:10:48;23.50;67.20
13458;DHT22;6801;53.018;11.560;2023-08-17T14:13:15;23.50;67.30
13458;DHT22;6801;53.018;11.560;2023-08-17T14:15:43;23.50;67.30
13458;DHT22;6801;53.018;11.560;2023-08-17T14:18:10;23.60;67.20
13458;DHT22;6801;53.018;11.560;2023-08-17T14:20:37;23.60;67.20
13458;DHT22;6801;53.018;11.560;2023-08-17T14:23:04;23.60;67.00
13458;DHT22;6801;53.018;11.560;2023-08-17T14:25:33;23.60;67.10
13458;DHT22;6801;53.018;11.560;2023-08-17T14:28:00;23.60;67.10
13458;DHT22;6801;53.018;11.560;2023-08-17T14:30:30;23.60;66.90
13458;DHT22;6801;53.018;11.560;2023-08-17T14:32:57;23.60;66.60
13458;DHT22;6801;53.018;11.560;2023-08-17T14:35:25;23.70;66.60
13458;DHT22;6801;53.018;11.560;2023-08-17T14:37:53;23.70;66.70
13458;DHT22;6801;53.018;11.560;2023-08-17T14:40:23;23.60;66.90
13458;DHT22;6801;53.018;11.560;2023-08-17T14:42:51;23.70;66.60
13458;DHT22;6801;53.018;11.560;2023-08-17T14:45:19;23.70;66.60
13458;DHT22;6801;53.018;11.560;2023-08-17T14:47:46;23.80;66.90
13458;DHT22;6801;53.018;11.560;2023-08-17T14:50:13;23.80;66.80
13458;DHT22;6801;53.018;11.560;2023-08-17T14:52:41;23.90;66.60
13458;DHT22;6801;53.018;11.560;2023-08-17T14:55:08;23.90;66.60
13458;DHT22;6801;53.018;11.560;2023-08-17T14:57:36;23.90;66.40
13458;DHT22;6801;53.018;11.560;2023-08-17T15:00:07;23.90;66.30
13458;DHT22;6801;53.018;11.560;2023-08-17T15:02:34;24.00;66.30
13458;DHT22;6801;53.018;11.560;2023-08-17T15:05:01;24.00;66.50
13458;DHT22;6801;53.018;11.560;2023-08-17T15:07:29;24.00;66.20
13458;DHT22;6801;53.018;11.560;2023-08-17T15:09:56;24.10;66.10
13458;DHT22;6801;53.018;11.560;2023-08-17T15:12:23;24.00;66.00
13458;DHT22;6801;53.018;11.560;2023-08-17T15:14:50;24.10;65.70
13458;DHT22;6801;53.018;11.560;2023-08-17T15:17:19;24.10;65.70
13458;DHT22;6801;53.018;11.560;2023-08-17T15:19:46;24.10;65.70
13458;DHT22;6801;53.018;11.560;2023-08-17T15:22:13;24.20;65.50
13458;DHT22;6801;53.018;11.560;2023-08-17T15:24:40;24.20;65.60
13458;DHT22;6801;53.018;11.560;2023-08-17T15:27:09;24.20;65.60
13458;DHT22;6801;53.018;11.560;2023-08-17T15:29:36;24.20;65.50
13458;DHT22;6801;53.018;11.560;2023-08-17T15:32:03;24.20;65.20
13458;DHT22;6801;53.018;11.560;2023-08-17T15:34:31;24.30;64.90